createdAt,value
2018-01-18T00:00:31.180Z,999.21
2018-01-18T00:02:32.671Z,999.13
2018-01-18T00:04:34.154Z,999.06
2018-01-18T00:06:35.642Z,999.12
2018-01-18T00:08:37.561Z,999.13
2018-01-18T00:10:39.007Z,998.98
2018-01-18T00:12:40.882Z,998.94
2018-01-18T00:14:42.809Z,998.88
2018-01-18T00:16:44.732Z,998.85
2018-01-18T00:18:46.246Z,998.79
2018-01-18T00:20:47.709Z,998.74
2018-01-18T00:23:32.280Z,998.69
2018-01-18T00:25:33.830Z,998.70
2018-01-18T00:27:35.238Z,998.60
2018-01-18T00:29:36.639Z,998.59
2018-01-18T00:31:38.044Z,998.52
2018-01-18T00:33:39.753Z,998.55
2018-01-18T00:35:41.153Z,998.39
2018-01-18T00:37:42.928Z,998.38
2018-01-18T00:39:44.448Z,998.38
2018-01-18T00:42:26.997Z,998.42
2018-01-18T00:44:28.416Z,998.42
2018-01-18T00:46:29.803Z,998.33
2018-01-18T00:48:31.563Z,998.28
2018-01-18T00:50:34.773Z,998.25
2018-01-18T00:52:36.973Z,998.21
2018-01-18T00:54:38.426Z,998.21
2018-01-18T00:56:40.526Z,998.19
2018-01-18T00:58:42.451Z,998.09
2018-01-18T01:00:44.693Z,998.05
2018-01-18T01:03:30.243Z,998.00
2018-01-18T01:05:31.446Z,997.95
2018-01-18T01:07:32.966Z,997.78
2018-01-18T01:09:34.365Z,997.76
2018-01-18T01:11:35.820Z,997.73
2018-01-18T01:13:37.676Z,997.62
2018-01-18T01:15:39.188Z,997.62
2018-01-18T01:17:40.711Z,997.55
2018-01-18T01:19:42.823Z,997.49
2018-01-18T01:21:44.346Z,997.46
2018-01-18T01:23:45.873Z,997.37
2018-01-18T01:25:47.678Z,997.25
2018-01-18T01:27:49.140Z,997.17
2018-01-18T01:29:50.579Z,997.15
2018-01-18T01:31:52.058Z,997.19
2018-01-18T01:33:53.552Z,997.20
2018-01-18T01:35:55.188Z,997.16
2018-01-18T01:37:56.958Z,997.10
2018-01-18T01:39:58.500Z,997.16
2018-01-18T01:42:00.205Z,997.09
2018-01-18T01:44:02.374Z,997.01
2018-01-18T01:46:04.038Z,996.97
2018-01-18T01:48:05.540Z,996.94
2018-01-18T01:50:07.307Z,996.80
2018-01-18T01:52:08.831Z,996.75
2018-01-18T01:54:10.342Z,996.60
2018-01-18T01:56:12.408Z,996.57
2018-01-18T01:58:14.761Z,996.51
2018-01-18T02:00:16.312Z,996.47
2018-01-18T02:02:18.484Z,996.54
2018-01-18T02:04:19.942Z,996.40
2018-01-18T02:06:21.570Z,996.39
2018-01-18T02:08:23.705Z,996.33
2018-01-18T02:10:25.260Z,996.27
2018-01-18T02:12:26.779Z,996.19
2018-01-18T02:14:29.157Z,996.16
2018-01-18T02:16:31.478Z,995.96
2018-01-18T02:18:33.029Z,995.94
2018-01-18T02:20:34.849Z,995.82
2018-01-18T02:23:21.400Z,995.70
2018-01-18T02:25:22.645Z,995.67
2018-01-18T02:27:24.990Z,995.64
2018-01-18T02:29:26.377Z,995.48
2018-01-18T02:31:27.766Z,995.41
2018-01-18T02:33:29.171Z,995.38
2018-01-18T02:35:30.574Z,995.23
2018-01-18T02:37:31.973Z,995.17
2018-01-18T02:39:34.165Z,995.14
2018-01-18T02:41:36.169Z,995.04
2018-01-18T02:43:38.072Z,995.12
2018-01-18T02:45:39.676Z,995.04
2018-01-18T02:47:41.470Z,994.94
2018-01-18T02:49:43.665Z,994.91
2018-01-18T02:51:45.665Z,994.91
2018-01-18T02:53:47.118Z,994.94
2018-01-18T02:55:48.842Z,994.87
2018-01-18T02:57:50.283Z,994.69
2018-01-18T02:59:51.821Z,994.68
2018-01-18T03:02:38.019Z,994.68
2018-01-18T03:04:39.696Z,994.58
2018-01-18T03:06:41.112Z,994.46
2018-01-18T03:08:43.307Z,994.39
2018-01-18T03:10:44.736Z,994.26
2018-01-18T03:12:46.214Z,994.13
2018-01-18T03:14:48.383Z,993.95
2018-01-18T03:16:49.894Z,993.93
2018-01-18T03:18:51.681Z,993.87
2018-01-18T03:20:53.202Z,993.74
2018-01-18T03:22:54.677Z,993.73
2018-01-18T03:24:56.078Z,993.68
2018-01-18T03:26:57.558Z,993.55
2018-01-18T03:28:59.322Z,993.41
2018-01-18T03:31:00.867Z,993.42
2018-01-18T03:33:02.345Z,993.38
2018-01-18T03:35:03.834Z,993.24
2018-01-18T03:37:05.306Z,993.23
2018-01-18T03:39:07.500Z,993.05
2018-01-18T03:41:09.049Z,993.02
2018-01-18T03:43:10.776Z,992.79
2018-01-18T03:45:12.274Z,992.76
2018-01-18T03:47:13.747Z,992.64
2018-01-18T03:49:15.205Z,992.47
2018-01-18T03:51:17.025Z,992.41
2018-01-18T03:53:18.513Z,992.24
2018-01-18T03:55:20.716Z,992.13
2018-01-18T03:57:23.558Z,992.05
2018-01-18T03:59:25.089Z,991.92
2018-01-18T04:01:26.667Z,991.85
2018-01-18T04:03:28.742Z,991.69
2018-01-18T04:05:30.809Z,991.59
2018-01-18T04:07:32.633Z,991.42
2018-01-18T04:09:34.090Z,991.27
2018-01-18T04:11:35.558Z,991.19
2018-01-18T04:13:36.968Z,991.08
2018-01-18T04:15:38.465Z,990.88
2018-01-18T04:17:40.602Z,990.68
2018-01-18T04:19:42.093Z,990.43
2018-01-18T04:21:43.809Z,990.26
2018-01-18T04:23:45.312Z,990.09
2018-01-18T04:25:46.941Z,990.12
2018-01-18T04:27:48.429Z,990.00
2018-01-18T04:29:49.910Z,989.94
2018-01-18T04:31:51.316Z,989.87
2018-01-18T04:33:52.724Z,989.67
2018-01-18T04:35:54.424Z,989.46
2018-01-18T04:37:55.833Z,989.24
2018-01-18T04:39:57.773Z,989.09
2018-01-18T04:42:39.377Z,988.88
2018-01-18T04:44:42.673Z,988.83
2018-01-18T04:46:44.042Z,988.79
2018-01-18T04:48:45.451Z,988.66
2018-01-18T04:50:46.899Z,988.48
2018-01-18T04:52:48.613Z,988.38
2018-01-18T04:54:50.516Z,988.27
2018-01-18T04:56:52.035Z,988.17
2018-01-18T04:58:53.426Z,988.07
2018-01-18T05:00:55.483Z,987.93
2018-01-18T05:02:57.510Z,987.77
2018-01-18T05:04:58.997Z,987.72
2018-01-18T05:07:00.598Z,987.57
2018-01-18T05:09:02.682Z,987.29
2018-01-18T05:11:04.652Z,987.20
2018-01-18T05:13:06.219Z,987.04
2018-01-18T05:15:08.219Z,987.14
2018-01-18T05:17:10.205Z,986.81
2018-01-18T05:19:12.079Z,986.92
2018-01-18T05:21:14.036Z,986.61
2018-01-18T05:23:15.784Z,986.58
2018-01-18T05:25:17.760Z,986.41
2018-01-18T05:27:19.274Z,986.28
2018-01-18T05:29:20.681Z,986.19
2018-01-18T05:31:22.172Z,986.23
2018-01-18T05:33:24.046Z,986.07
2018-01-18T05:35:25.574Z,985.99
2018-01-18T05:37:27.130Z,985.98
2018-01-18T05:39:29.215Z,985.78
2018-01-18T05:41:31.161Z,985.64
2018-01-18T05:43:32.695Z,985.42
2018-01-18T05:45:34.153Z,985.34
2018-01-18T05:47:36.199Z,984.97
2018-01-18T05:49:38.398Z,985.10
2018-01-18T05:51:39.775Z,985.16
2018-01-18T05:53:41.177Z,984.86
2018-01-18T05:55:42.613Z,984.56
2018-01-18T05:57:44.030Z,984.44
2018-01-18T05:59:45.600Z,984.38
2018-01-18T06:01:47.597Z,984.40
2018-01-18T06:03:49.340Z,984.16
2018-01-18T06:05:50.826Z,984.00
2018-01-18T06:07:52.677Z,983.77
2018-01-18T06:09:54.181Z,983.59
2018-01-18T06:11:55.671Z,983.49
2018-01-18T06:13:57.154Z,983.61
2018-01-18T06:15:58.639Z,983.53
2018-01-18T06:18:00.088Z,983.37
2018-01-18T06:20:01.565Z,983.18
2018-01-18T06:22:03.710Z,983.05
2018-01-18T06:24:05.151Z,983.02
2018-01-18T06:26:06.606Z,982.85
2018-01-18T06:28:08.908Z,982.56
2018-01-18T06:30:10.431Z,982.65
2018-01-18T06:32:12.765Z,982.46
2018-01-18T06:34:14.866Z,982.44
2018-01-18T06:36:17.021Z,982.14
2018-01-18T06:38:19.150Z,982.49
2018-01-18T06:40:21.026Z,982.48
2018-01-18T06:42:22.613Z,982.26
2018-01-18T06:44:24.098Z,982.14
2018-01-18T06:46:25.577Z,982.08
2018-01-18T06:48:27.177Z,982.02
2018-01-18T06:50:28.652Z,981.87
2018-01-18T06:52:30.187Z,981.85
2018-01-18T06:54:31.612Z,981.75
2018-01-18T06:56:33.069Z,981.70
2018-01-18T06:58:34.552Z,981.67
2018-01-18T07:00:36.029Z,981.56
2018-01-18T07:02:37.566Z,981.43
2018-01-18T07:04:39.098Z,981.30
2018-01-18T07:06:40.600Z,981.17
2018-01-18T07:08:42.120Z,981.15
2018-01-18T07:10:43.643Z,980.93
2018-01-18T07:12:45.793Z,980.98
2018-01-18T07:14:47.313Z,981.03
2018-01-18T07:16:48.790Z,981.02
2018-01-18T07:18:50.282Z,980.93
2018-01-18T07:20:51.820Z,980.86
2018-01-18T07:23:33.581Z,980.67
2018-01-18T07:25:35.117Z,980.59
2018-01-18T07:27:38.226Z,980.70
2018-01-18T07:29:40.560Z,980.59
2018-01-18T07:31:41.900Z,980.33
2018-01-18T07:33:43.565Z,980.32
2018-01-18T07:35:45.010Z,980.17
2018-01-18T07:37:46.607Z,980.03
2018-01-18T07:39:48.199Z,979.91
2018-01-18T07:41:49.828Z,979.90
2018-01-18T07:43:51.318Z,979.98
2018-01-18T07:45:52.836Z,979.93
2018-01-18T07:47:54.505Z,979.80
2018-01-18T07:49:55.979Z,979.65
2018-01-18T07:51:57.516Z,979.46
2018-01-18T07:53:59.394Z,979.56
2018-01-18T07:56:00.918Z,979.56
2018-01-18T07:58:02.392Z,979.68
2018-01-18T08:00:03.969Z,979.75
2018-01-18T08:02:05.545Z,979.40
2018-01-18T08:04:07.889Z,979.36
2018-01-18T08:06:10.171Z,979.67
2018-01-18T08:08:11.770Z,979.52
2018-01-18T08:10:13.731Z,979.46
2018-01-18T08:12:16.251Z,979.61
2018-01-18T08:14:18.613Z,979.19
2018-01-18T08:16:20.304Z,979.35
2018-01-18T08:18:22.765Z,979.35
2018-01-18T08:20:24.810Z,979.17
2018-01-18T08:22:26.428Z,979.34
2018-01-18T08:24:28.659Z,979.42
2018-01-18T08:26:30.802Z,979.22
2018-01-18T08:28:32.448Z,979.19
2018-01-18T08:30:34.086Z,979.14
2018-01-18T08:32:35.781Z,978.98
2018-01-18T08:34:37.554Z,979.14
2018-01-18T08:36:39.684Z,979.04
2018-01-18T08:38:41.451Z,978.91
2018-01-18T08:40:43.163Z,978.88
2018-01-18T08:42:44.984Z,978.82
2018-01-18T08:44:46.703Z,978.86
2018-01-18T08:46:48.385Z,978.77
2018-01-18T08:48:49.911Z,978.91
2018-01-18T08:50:51.419Z,978.69
2018-01-18T08:52:52.959Z,978.57
2018-01-18T08:54:54.768Z,978.61
2018-01-18T08:56:56.650Z,978.69
2018-01-18T08:58:58.330Z,978.39
2018-01-18T09:01:00.012Z,978.32
2018-01-18T09:03:01.596Z,978.33
2018-01-18T09:05:03.706Z,978.24
2018-01-18T09:07:05.515Z,978.42
2018-01-18T09:09:07.942Z,978.33
2018-01-18T09:11:09.654Z,978.51
2018-01-18T09:13:11.242Z,978.57
2018-01-18T09:15:13.506Z,978.82
2018-01-18T09:17:15.174Z,978.59
2018-01-18T09:19:16.837Z,978.75
2018-01-18T09:21:18.947Z,978.58
2018-01-18T09:23:20.540Z,978.55
2018-01-18T09:25:22.082Z,978.55
2018-01-18T09:27:23.616Z,978.41
2018-01-18T09:29:25.129Z,978.44
2018-01-18T09:31:26.630Z,978.58
2018-01-18T09:33:28.310Z,978.40
2018-01-18T09:35:30.174Z,978.54
2018-01-18T09:37:32.006Z,978.46
2018-01-18T09:39:33.855Z,978.52
2018-01-18T09:41:35.653Z,978.48
2018-01-18T09:43:37.380Z,978.40
2018-01-18T09:45:39.240Z,978.45
2018-01-18T09:47:41.029Z,978.56
2018-01-18T09:49:42.792Z,978.36
2018-01-18T09:51:44.564Z,978.35
2018-01-18T09:53:46.067Z,978.55
2018-01-18T09:55:47.541Z,978.58
2018-01-18T09:57:49.033Z,978.41
2018-01-18T09:59:50.539Z,978.26
2018-01-18T10:01:52.128Z,978.33
2018-01-18T10:03:54.046Z,978.09
2018-01-18T10:05:55.665Z,978.09
2018-01-18T10:07:57.563Z,978.22
2018-01-18T10:09:59.436Z,978.51
2018-01-18T10:12:01.194Z,978.20
2018-01-18T10:14:02.645Z,978.24
2018-01-18T10:16:04.164Z,978.26
2018-01-18T10:18:05.640Z,978.35
2018-01-18T10:20:07.533Z,978.29
2018-01-18T10:22:09.230Z,978.41
2018-01-18T10:24:11.053Z,977.99
2018-01-18T10:26:12.835Z,978.41
2018-01-18T10:28:14.613Z,978.36
2018-01-18T10:30:16.178Z,978.44
2018-01-18T10:32:17.862Z,978.03
2018-01-18T10:34:19.509Z,978.12
2018-01-18T10:36:21.131Z,978.25
2018-01-18T10:38:22.905Z,978.03
2018-01-18T10:40:24.700Z,978.14
2018-01-18T10:42:26.396Z,978.53
2018-01-18T10:44:28.096Z,978.45
2018-01-18T10:46:29.896Z,978.45
2018-01-18T10:48:31.613Z,978.76
2018-01-18T10:50:33.359Z,978.71
2018-01-18T10:52:35.107Z,978.92
2018-01-18T10:54:36.642Z,979.05
2018-01-18T10:56:38.474Z,978.82
2018-01-18T10:58:40.341Z,979.00
2018-01-18T11:00:42.137Z,979.13
2018-01-18T11:02:43.883Z,979.33
2018-01-18T11:04:45.630Z,979.41
2018-01-18T11:06:47.357Z,979.03
2018-01-18T11:08:49.162Z,979.55
2018-01-18T11:10:50.934Z,979.88
2018-01-18T11:12:52.753Z,979.98
2018-01-18T11:14:54.382Z,979.91
2018-01-18T11:16:55.869Z,980.49
2018-01-18T11:18:57.724Z,980.45
2018-01-18T11:20:59.448Z,981.03
2018-01-18T11:23:00.910Z,981.04
2018-01-18T11:25:02.466Z,981.38
2018-01-18T11:27:04.172Z,981.59
2018-01-18T11:29:05.759Z,981.90
2018-01-18T11:31:07.258Z,982.11
2018-01-18T11:33:08.776Z,982.40
2018-01-18T11:35:10.249Z,982.50
2018-01-18T11:37:11.746Z,983.31
2018-01-18T11:39:13.276Z,983.58
2018-01-18T11:41:14.762Z,983.34
2018-01-18T11:43:16.241Z,983.66
2018-01-18T11:45:17.719Z,983.80
2018-01-18T11:47:19.152Z,984.05
2018-01-18T11:49:20.626Z,984.50
2018-01-18T11:51:22.280Z,983.85
2018-01-18T11:53:23.935Z,984.64
2018-01-18T11:55:25.421Z,984.72
2018-01-18T11:57:26.898Z,985.09
2018-01-18T11:59:28.418Z,985.14
2018-01-18T12:01:29.884Z,985.26
2018-01-18T12:03:31.353Z,985.49
2018-01-18T12:05:32.818Z,985.82
2018-01-18T12:07:34.297Z,985.68
2018-01-18T12:09:35.785Z,986.05
2018-01-18T12:11:37.275Z,986.02
2018-01-18T12:13:38.721Z,986.28
2018-01-18T12:15:40.205Z,986.42
2018-01-18T12:17:41.855Z,986.56
2018-01-18T12:19:43.358Z,986.73
2018-01-18T12:21:45.046Z,986.78
2018-01-18T12:23:46.545Z,987.03
2018-01-18T12:25:48.085Z,987.14
2018-01-18T12:27:49.672Z,987.47
2018-01-18T12:29:51.324Z,987.34
2018-01-18T12:31:52.876Z,987.52
2018-01-18T12:33:54.387Z,987.64
2018-01-18T12:35:55.969Z,987.76
2018-01-18T12:37:57.477Z,987.80
2018-01-18T12:39:58.974Z,988.12
2018-01-18T12:42:00.520Z,988.18
2018-01-18T12:44:02.074Z,988.22
2018-01-18T12:46:03.618Z,988.41
2018-01-18T12:48:05.098Z,988.56
2018-01-18T12:50:06.612Z,988.68
2018-01-18T12:52:08.090Z,988.79
2018-01-18T12:54:09.644Z,988.87
2018-01-18T12:56:11.176Z,988.92
2018-01-18T12:58:12.810Z,989.19
2018-01-18T13:00:14.570Z,989.17
2018-01-18T13:02:16.744Z,989.33
2018-01-18T13:04:18.282Z,989.45
2018-01-18T13:06:19.839Z,989.64
2018-01-18T13:08:21.538Z,989.76
2018-01-18T13:10:23.358Z,989.77
2018-01-18T13:12:24.800Z,989.86
2018-01-18T13:14:26.489Z,989.82
2018-01-18T13:16:27.936Z,990.08
2018-01-18T13:18:29.404Z,990.14
2018-01-18T13:20:30.863Z,990.12
2018-01-18T13:22:32.479Z,990.36
2018-01-18T13:24:34.002Z,990.38
2018-01-18T13:26:35.556Z,990.49
2018-01-18T13:28:37.045Z,990.50
2018-01-18T13:30:38.546Z,990.66
2018-01-18T13:32:40.091Z,990.58
2018-01-18T13:34:41.569Z,990.78
2018-01-18T13:36:43.033Z,990.81
2018-01-18T13:38:44.567Z,990.91
2018-01-18T13:40:46.048Z,990.98
2018-01-18T13:42:47.552Z,990.99
2018-01-18T13:44:49.017Z,991.11
2018-01-18T13:46:50.535Z,991.34
2018-01-18T13:48:52.014Z,991.36
2018-01-18T13:50:53.465Z,991.36
2018-01-18T13:52:55.063Z,991.40
2018-01-18T13:54:56.508Z,991.44
2018-01-18T13:56:57.949Z,991.55
2018-01-18T13:58:59.432Z,991.66
2018-01-18T14:01:00.930Z,991.69
2018-01-18T14:03:02.450Z,991.74
2018-01-18T14:05:04.124Z,991.97
2018-01-18T14:07:05.836Z,991.96
2018-01-18T14:09:07.458Z,991.92
2018-01-18T14:11:09.391Z,992.01
2018-01-18T14:13:10.945Z,992.10
2018-01-18T14:15:12.637Z,992.16
2018-01-18T14:17:14.135Z,992.15
2018-01-18T14:19:15.689Z,992.21
2018-01-18T14:21:17.366Z,992.24
2018-01-18T14:23:18.995Z,992.29
2018-01-18T14:25:20.760Z,992.30
2018-01-18T14:27:22.582Z,992.24
2018-01-18T14:29:24.454Z,992.36
2018-01-18T14:31:26.285Z,992.40
2018-01-18T14:33:28.209Z,992.52
2018-01-18T14:35:30.043Z,992.58
2018-01-18T14:37:31.643Z,992.55
2018-01-18T14:39:33.263Z,992.60
2018-01-18T14:41:34.897Z,992.76
2018-01-18T14:44:17.303Z,992.88
2018-01-18T14:46:18.730Z,992.75
2018-01-18T14:48:20.161Z,992.88
2018-01-18T14:50:21.624Z,992.91
2018-01-18T14:52:23.594Z,992.89
2018-01-18T14:54:25.249Z,992.95
2018-01-18T14:56:27.178Z,993.00
2018-01-18T14:58:28.747Z,993.04
2018-01-18T15:00:30.452Z,993.07
2018-01-18T15:02:31.858Z,993.14
2018-01-18T15:04:33.259Z,993.16
2018-01-18T15:06:34.738Z,993.20
2018-01-18T15:08:36.398Z,993.29
2018-01-18T15:10:38.221Z,993.29
2018-01-18T15:12:40.232Z,993.38
2018-01-18T15:14:42.089Z,993.48
2018-01-18T15:16:43.720Z,993.43
2018-01-18T15:18:45.491Z,993.52
2018-01-18T15:20:47.012Z,993.53
2018-01-18T15:22:48.860Z,993.60
2018-01-18T15:24:50.611Z,993.65
2018-01-18T15:26:52.249Z,993.63
2018-01-18T15:28:54.199Z,993.67
2018-01-18T15:30:56.452Z,993.76
2018-01-18T15:32:58.120Z,993.76
2018-01-18T15:34:59.787Z,993.87
2018-01-18T15:37:01.380Z,993.94
2018-01-18T15:39:02.942Z,994.01
2018-01-18T15:41:04.471Z,994.04
2018-01-18T15:43:05.985Z,994.08
2018-01-18T15:45:07.519Z,994.07
2018-01-18T15:47:09.064Z,994.12
2018-01-18T15:49:10.791Z,994.19
2018-01-18T15:51:12.335Z,994.17
2018-01-18T15:53:13.860Z,994.21
2018-01-18T15:55:15.456Z,994.19
2018-01-18T15:57:16.989Z,994.21
2018-01-18T15:59:18.676Z,994.20
2018-01-18T16:01:20.288Z,994.22
2018-01-18T16:03:21.794Z,994.26
2018-01-18T16:05:23.310Z,994.29
2018-01-18T16:07:25.091Z,994.31
2018-01-18T16:09:26.573Z,994.33
2018-01-18T16:11:28.201Z,994.37
2018-01-18T16:13:29.756Z,994.44
2018-01-18T16:15:31.344Z,994.50
2018-01-18T16:17:32.871Z,994.44
2018-01-18T16:19:34.516Z,994.55
2018-01-18T16:21:36.035Z,994.64
2018-01-18T16:23:37.470Z,994.66
2018-01-18T16:25:38.924Z,994.73
2018-01-18T16:27:40.440Z,994.75
2018-01-18T16:29:42.787Z,994.76
2018-01-18T16:31:45.196Z,994.80
2018-01-18T16:33:46.806Z,994.84
2018-01-18T16:35:48.748Z,994.86
2018-01-18T16:37:50.368Z,994.92
2018-01-18T16:39:52.041Z,994.89
2018-01-18T16:41:53.759Z,994.92
2018-01-18T16:43:55.209Z,994.88
2018-01-18T16:45:56.725Z,994.88
2018-01-18T16:47:58.369Z,994.92
2018-01-18T16:49:59.932Z,994.86
2018-01-18T16:52:01.576Z,994.93
2018-01-18T16:54:03.052Z,994.98
2018-01-18T16:56:04.540Z,994.99
2018-01-18T16:58:06.065Z,994.96
2018-01-18T17:00:08.533Z,994.99
2018-01-18T17:02:10.608Z,995.07
2018-01-18T17:04:12.113Z,995.04
2018-01-18T17:06:13.577Z,995.01
2018-01-18T17:08:15.257Z,995.08
2018-01-18T17:10:16.994Z,995.23
2018-01-18T17:12:18.467Z,995.33
2018-01-18T17:14:20.146Z,995.37
2018-01-18T17:16:21.826Z,995.44
2018-01-18T17:18:24.639Z,995.47
2018-01-18T17:20:26.534Z,995.49
2018-01-18T17:22:28.113Z,995.41
2018-01-18T17:24:29.582Z,995.48
2018-01-18T17:26:31.609Z,995.45
2018-01-18T17:28:33.252Z,995.43
2018-01-18T17:30:35.226Z,995.45
2018-01-18T17:32:36.940Z,995.44
2018-01-18T17:34:38.870Z,995.53
2018-01-18T17:36:40.790Z,995.54
2018-01-18T17:38:42.640Z,995.56
2018-01-18T17:40:44.338Z,995.64
2018-01-18T17:42:46.187Z,995.70
2018-01-18T17:44:47.694Z,995.63
2018-01-18T17:46:49.205Z,995.67
2018-01-18T17:48:50.697Z,995.58
2018-01-18T17:50:52.360Z,995.70
2018-01-18T17:52:53.986Z,995.74
2018-01-18T17:54:55.742Z,995.73
2018-01-18T17:56:57.267Z,995.70
2018-01-18T17:58:58.801Z,995.66
2018-01-18T18:01:00.522Z,995.68
2018-01-18T18:03:02.261Z,995.75
2018-01-18T18:05:03.691Z,995.66
2018-01-18T18:07:05.332Z,995.66
2018-01-18T18:09:06.842Z,995.70
2018-01-18T18:11:08.739Z,995.72
2018-01-18T18:13:10.243Z,995.73
2018-01-18T18:15:11.765Z,995.79
2018-01-18T18:17:13.254Z,995.85
2018-01-18T18:19:14.737Z,995.86
2018-01-18T18:21:16.478Z,995.88
2018-01-18T18:23:18.122Z,995.86
2018-01-18T18:25:19.929Z,995.89
2018-01-18T18:27:21.385Z,995.89
2018-01-18T18:29:22.878Z,995.91
2018-01-18T18:31:24.378Z,995.95
2018-01-18T18:33:26.164Z,995.96
2018-01-18T18:35:27.800Z,995.97
2018-01-18T18:37:29.415Z,995.98
2018-01-18T18:39:31.200Z,995.99
2018-01-18T18:41:33.037Z,996.00
2018-01-18T18:43:34.776Z,995.99
2018-01-18T18:45:36.272Z,995.94
2018-01-18T18:47:37.788Z,995.96
2018-01-18T18:49:39.307Z,995.93
2018-01-18T18:51:41.007Z,995.98
2018-01-18T18:53:42.776Z,996.00
2018-01-18T18:55:44.618Z,996.04
2018-01-18T18:57:46.212Z,996.07
2018-01-18T18:59:47.954Z,996.00
2018-01-18T19:01:49.502Z,996.03
2018-01-18T19:03:50.983Z,996.05
2018-01-18T19:05:52.514Z,996.11
2018-01-18T19:07:54.026Z,996.13
2018-01-18T19:09:55.744Z,996.13
2018-01-18T19:11:57.829Z,996.15
2018-01-18T19:13:59.705Z,996.17
2018-01-18T19:16:42.595Z,996.19
2018-01-18T19:18:43.967Z,996.21
2018-01-18T19:20:45.371Z,996.20
2018-01-18T19:22:46.773Z,996.21
2018-01-18T19:24:48.866Z,996.17
2018-01-18T19:26:50.422Z,996.18
2018-01-18T19:28:52.117Z,996.19
2018-01-18T19:30:53.856Z,996.22
2018-01-18T19:32:55.773Z,996.23
2018-01-18T19:35:39.683Z,996.24
2018-01-18T19:37:41.222Z,996.26
2018-01-18T19:39:42.595Z,996.28
2018-01-18T19:41:44.000Z,996.31
2018-01-18T19:43:45.403Z,996.32
2018-01-18T19:45:46.804Z,996.37
2018-01-18T19:47:48.213Z,996.33
2018-01-18T19:49:49.720Z,996.30
2018-01-18T19:51:51.361Z,996.33
2018-01-18T19:54:33.787Z,996.34
2018-01-18T19:56:35.192Z,996.36
2018-01-18T19:58:36.616Z,996.39
2018-01-18T20:00:38.007Z,996.37
2018-01-18T20:02:39.438Z,996.44
2018-01-18T20:04:40.937Z,996.44
2018-01-18T20:06:42.468Z,996.46
2018-01-18T20:08:44.189Z,996.43
2018-01-18T20:10:46.002Z,996.44
2018-01-18T20:12:48.607Z,996.42
2018-01-18T20:14:50.361Z,996.47
2018-01-18T20:16:52.173Z,996.47
2018-01-18T20:18:53.921Z,996.42
2018-01-18T20:20:55.440Z,996.44
2018-01-18T20:22:57.075Z,996.44
2018-01-18T20:24:58.831Z,996.48
2018-01-18T20:27:00.403Z,996.52
2018-01-18T20:29:02.566Z,996.49
2018-01-18T20:31:04.073Z,996.53
2018-01-18T20:33:46.976Z,996.51
2018-01-18T20:35:48.352Z,996.51
2018-01-18T20:37:51.539Z,996.57
2018-01-18T20:39:52.902Z,996.52
2018-01-18T20:41:54.448Z,996.58
2018-01-18T20:43:55.922Z,996.61
2018-01-18T20:46:38.308Z,996.64
2018-01-18T20:48:39.882Z,996.60
2018-01-18T20:50:42.240Z,996.63
2018-01-18T20:53:24.883Z,996.61
2018-01-18T20:55:26.276Z,996.59
2018-01-18T20:57:27.677Z,996.66
2018-01-18T20:59:30.797Z,996.62
2018-01-18T21:01:32.902Z,996.61
2018-01-18T21:03:35.067Z,996.59
2018-01-18T21:05:36.613Z,996.58
2018-01-18T21:07:38.366Z,996.63
2018-01-18T21:09:40.089Z,996.62
2018-01-18T21:12:23.612Z,996.63
2018-01-18T21:14:25.448Z,996.66
2018-01-18T21:16:27.888Z,996.65
2018-01-18T21:18:29.301Z,996.67
2018-01-18T21:20:30.691Z,996.64
2018-01-18T21:23:14.315Z,996.63
2018-01-18T21:25:15.712Z,996.61
2018-01-18T21:27:18.064Z,996.62
2018-01-18T21:29:19.885Z,996.67
2018-01-18T21:32:02.913Z,996.68
2018-01-18T21:34:04.544Z,996.71
2018-01-18T21:36:06.990Z,996.77
2018-01-18T21:38:08.154Z,996.79
2018-01-18T21:40:09.588Z,996.80
2018-01-18T21:42:11.030Z,996.82
2018-01-18T21:44:12.511Z,996.84
2018-01-18T21:46:55.978Z,996.87
2018-01-18T21:48:57.960Z,996.95
2018-01-18T21:51:41.321Z,996.91
2018-01-18T21:53:42.706Z,996.96
2018-01-18T21:55:44.113Z,996.92
2018-01-18T21:57:45.513Z,996.93
2018-01-18T21:59:49.014Z,996.92
2018-01-18T22:01:50.470Z,996.92
2018-01-18T22:03:52.035Z,996.95
2018-01-18T22:06:35.117Z,996.97
2018-01-18T22:08:36.518Z,996.95
2018-01-18T22:10:38.866Z,996.93
2018-01-18T22:12:40.550Z,996.96
2018-01-18T22:14:42.925Z,996.97
2018-01-18T22:16:44.333Z,997.02
2018-01-18T22:18:45.826Z,997.04
2018-01-18T22:20:47.929Z,997.06
2018-01-18T22:22:49.727Z,997.07
2018-01-18T22:25:31.334Z,997.08
2018-01-18T22:27:33.314Z,997.13
2018-01-18T22:29:35.067Z,997.11
2018-01-18T22:31:36.582Z,997.06
2018-01-18T22:33:37.979Z,997.03
2018-01-18T22:35:39.412Z,996.99
2018-01-18T22:37:40.871Z,996.97
2018-01-18T22:39:42.488Z,997.03
2018-01-18T22:41:44.267Z,997.02
2018-01-18T22:43:45.706Z,997.01
2018-01-18T22:46:28.535Z,997.04
2018-01-18T22:48:29.934Z,997.06
2018-01-18T22:50:32.339Z,997.05
2018-01-18T22:52:34.183Z,997.05
2018-01-18T22:54:35.885Z,997.09
2018-01-18T22:56:37.320Z,997.01
2018-01-18T22:58:38.757Z,997.04
2018-01-18T23:00:40.859Z,997.07
2018-01-18T23:02:42.681Z,997.10
2018-01-18T23:05:25.592Z,997.09
2018-01-18T23:07:27.783Z,997.10
2018-01-18T23:09:29.102Z,997.10
2018-01-18T23:11:30.505Z,997.08
2018-01-18T23:13:31.932Z,997.03
2018-01-18T23:15:33.967Z,997.03
2018-01-18T23:17:36.123Z,997.04
2018-01-18T23:19:37.549Z,997.07
2018-01-18T23:21:39.558Z,997.07
2018-01-18T23:23:40.961Z,997.11
2018-01-18T23:26:24.087Z,997.15
2018-01-18T23:28:25.478Z,997.13
2018-01-18T23:30:28.182Z,997.14
2018-01-18T23:32:29.925Z,997.15
2018-01-18T23:34:31.931Z,997.13
2018-01-18T23:36:33.431Z,997.09
2018-01-18T23:38:34.846Z,997.10
2018-01-18T23:40:36.373Z,997.16
2018-01-18T23:42:37.864Z,997.17
2018-01-18T23:44:39.268Z,997.18
2018-01-18T23:47:21.636Z,997.18
2018-01-18T23:49:23.470Z,997.17
2018-01-18T23:51:24.917Z,997.20
2018-01-18T23:53:26.320Z,997.17
2018-01-18T23:55:28.255Z,997.22
2018-01-18T23:57:29.774Z,997.24
2018-01-18T23:59:31.485Z,997.25
